Time;durP1;ratioP1;P1;durP2;ratioP2;P2;SDS_P1;SDS_P2;PMS_P1;PMS_P2;Temp;Humidity;BMP_temperature;BMP_pressure;BME280_temperature;BME280_humidity;BME280_pressure;Samples;Min_cycle;Max_cycle;Signal;HPM_P1;HPM_P2
2021/09/02 00:00:47;;;;;;;6.03;5.53;;;21.10;40.20;;;;;;4936236;29;20507;-67
2021/09/02 00:03:13;;;;;;;7.13;6.20;;;21.10;40.20;;;;;;4935984;29;20423;-67
2021/09/02 00:05:38;;;;;;;6.90;6.20;;;21.10;40.10;;;;;;4936043;29;20499;-67
2021/09/02 00:08:04;;;;;;;6.47;5.60;;;21.10;40.10;;;;;;4936084;29;20267;-67
2021/09/02 00:10:30;;;;;;;7.10;6.20;;;21.10;40.20;;;;;;4935731;29;20227;-67
2021/09/02 00:12:55;;;;;;;7.77;5.80;;;21.10;40.10;;;;;;4935777;29;20290;-67
2021/09/02 00:15:21;;;;;;;6.93;6.30;;;21.10;40.10;;;;;;4935902;29;20172;-67
2021/09/02 00:17:46;;;;;;;6.97;6.37;;;21.10;40.20;;;;;;4935661;29;20207;-67
2021/09/02 00:20:12;;;;;;;7.50;5.90;;;21.10;40.20;;;;;;4935527;29;20192;-67
2021/09/02 00:22:38;;;;;;;7.10;6.00;;;21.10;40.20;;;;;;4935978;29;20681;-66
2021/09/02 00:25:04;;;;;;;5.60;5.00;;;21.10;40.20;;;;;;4935826;29;20515;-67
2021/09/02 00:27:30;;;;;;;8.57;6.03;;;21.10;40.20;;;;;;4934863;29;20208;-67
2021/09/02 00:29:55;;;;;;;8.53;5.97;;;21.10;40.20;;;;;;4935372;29;20534;-67
2021/09/02 00:32:21;;;;;;;7.47;5.97;;;21.10;40.20;;;;;;4935293;29;20196;-67
2021/09/02 00:34:46;;;;;;;6.60;5.67;;;21.10;40.20;;;;;;4935551;29;20227;-67
2021/09/02 00:37:12;;;;;;;6.20;5.70;;;21.10;40.20;;;;;;4935233;29;20180;-67
2021/09/02 00:39:37;;;;;;;7.80;5.80;;;21.10;40.20;;;;;;4935186;29;20770;-67
2021/09/02 00:42:03;;;;;;;7.47;6.30;;;21.10;40.20;;;;;;4935425;29;20180;-67
2021/09/02 00:44:39;;;;;;;7.57;5.97;;;21.10;40.20;;;;;;4935218;29;20533;-67
2021/09/02 00:47:15;;;;;;;5.73;5.23;;;21.10;40.20;;;;;;4935296;29;20179;-67
2021/09/02 00:49:42;;;;;;;7.03;5.60;;;21.10;40.20;;;;;;4934825;29;20525;-67
2021/09/02 00:52:09;;;;;;;6.83;6.00;;;21.10;40.20;;;;;;4935136;29;20463;-67
2021/09/02 00:54:35;;;;;;;6.57;5.03;;;21.10;40.20;;;;;;4935141;29;20408;-67
2021/09/02 00:57:00;;;;;;;6.47;5.60;;;21.10;40.10;;;;;;4935231;29;20427;-67
2021/09/02 00:59:26;;;;;;;5.70;5.20;;;21.00;40.10;;;;;;4934707;29;20207;-67
2021/09/02 01:01:54;;;;;;;7.30;6.10;;;21.10;40.20;;;;;;4934904;29;20195;-67
2021/09/02 01:04:20;;;;;;;6.67;6.07;;;21.10;40.20;;;;;;4934894;29;20431;-67
2021/09/02 01:06:46;;;;;;;7.70;5.70;;;21.10;40.20;;;;;;4935181;29;20455;-67
2021/09/02 01:09:12;;;;;;;5.80;5.30;;;21.00;40.20;;;;;;4934811;29;20475;-67
2021/09/02 01:11:38;;;;;;;6.60;6.00;;;21.00;40.20;;;;;;4934958;29;20555;-67
2021/09/02 01:14:04;;;;;;;6.13;5.53;;;21.10;40.30;;;;;;4935067;29;20704;-67
2021/09/02 01:16:29;;;;;;;6.53;5.90;;;21.00;40.20;;;;;;4934761;29;20180;-67
2021/09/02 01:18:55;;;;;;;6.30;5.70;;;21.10;40.20;;;;;;4934473;29;20854;-67
2021/09/02 01:21:21;;;;;;;6.93;5.87;;;21.10;40.20;;;;;;4934711;29;20196;-67
2021/09/02 01:23:46;;;;;;;7.50;6.13;;;21.10;40.30;;;;;;4934624;29;20200;-68
2021/09/02 01:26:16;;;;;;;7.23;5.90;;;21.10;40.20;;;;;;4934738;29;20172;-67
2021/09/02 01:28:42;;;;;;;5.87;5.33;;;21.00;40.20;;;;;;4934408;29;20164;-67
2021/09/02 01:31:09;;;;;;;6.50;5.80;;;21.00;40.20;;;;;;4934468;29;20420;-67
2021/09/02 01:33:35;;;;;;;6.10;5.60;;;21.10;40.20;;;;;;4934431;29;20823;-67
2021/09/02 01:36:00;;;;;;;6.17;5.67;;;21.10;40.10;;;;;;4934632;29;20552;-67
2021/09/02 01:38:26;;;;;;;7.80;5.00;;;21.00;40.10;;;;;;4934356;29;20230;-67
2021/09/02 01:40:51;;;;;;;7.73;5.30;;;21.10;40.20;;;;;;4934363;29;20192;-67
2021/09/02 01:43:17;;;;;;;6.00;5.40;;;21.00;40.10;;;;;;4934478;29;20563;-67
2021/09/02 01:45:44;;;;;;;6.90;6.30;;;21.00;40.10;;;;;;4934278;29;20180;-67
2021/09/02 01:48:09;;;;;;;5.83;5.33;;;21.00;40.20;;;;;;4934478;29;20263;-66
2021/09/02 01:50:40;;;;;;;5.63;5.13;;;21.00;40.20;;;;;;4934102;29;20511;-66
2021/09/02 01:53:08;;;;;;;6.10;5.50;;;21.00;40.20;;;;;;4934667;29;20215;-67
2021/09/02 01:55:35;;;;;;;5.40;5.00;;;21.00;40.20;;;;;;4934324;29;20914;-67
2021/09/02 01:58:01;;;;;;;6.03;5.53;;;21.00;40.10;;;;;;4934529;29;20917;-67
2021/09/02 02:00:27;;;;;;;8.77;5.93;;;21.00;40.20;;;;;;4933845;29;20547;-67
2021/09/02 02:02:52;;;;;;;6.07;5.60;;;21.00;40.10;;;;;;4934513;29;20503;-66
2021/09/02 02:05:18;;;;;;;7.60;5.07;;;21.00;40.10;;;;;;4934223;29;20262;-67
2021/09/02 02:07:44;;;;;;;5.63;4.77;;;21.00;40.10;;;;;;4934387;29;20194;-67
2021/09/02 02:10:13;;;;;;;6.53;5.93;;;21.00;40.00;;;;;;4934015;29;20291;-67
2021/09/02 02:12:39;;;;;;;5.40;4.90;;;21.00;40.20;;;;;;4934143;29;20245;-67
2021/09/02 02:15:06;;;;;;;6.20;5.60;;;21.00;40.10;;;;;;4934082;29;20813;-67
2021/09/02 02:17:31;;;;;;;5.93;4.90;;;21.00;40.10;;;;;;4934139;29;20267;-67
2021/09/02 02:19:57;;;;;;;5.93;5.43;;;21.00;40.10;;;;;;4933885;29;20531;-67
2021/09/02 02:22:23;;;;;;;5.87;5.47;;;21.00;40.10;;;;;;4934236;29;20219;-67
2021/09/02 02:24:48;;;;;;;5.80;5.30;;;21.00;40.80;;;;;;4934143;29;20416;-67
2021/09/02 02:27:14;;;;;;;5.47;5.00;;;21.00;40.10;;;;;;4934239;29;20274;-68
2021/09/02 02:29:39;;;;;;;6.90;5.07;;;21.00;40.10;;;;;;4933805;29;20207;-68
2021/09/02 02:32:06;;;;;;;6.77;4.90;;;21.00;40.10;;;;;;4934029;29;20367;-68
2021/09/02 02:34:31;;;;;;;6.20;5.70;;;21.00;40.10;;;;;;4934041;29;20710;-68
2021/09/02 02:36:57;;;;;;;5.77;5.27;;;21.00;40.10;;;;;;4933959;29;20506;-68
2021/09/02 02:39:22;;;;;;;5.30;4.80;;;21.00;40.10;;;;;;4933805;29;20569;-68
2021/09/02 02:41:48;;;;;;;6.20;5.60;;;21.00;40.10;;;;;;4933832;29;20196;-68
2021/09/02 02:44:13;;;;;;;6.00;5.50;;;21.00;40.10;;;;;;4934217;29;20199;-67
2021/09/02 02:46:39;;;;;;;5.60;5.07;;;21.00;40.10;;;;;;4933910;29;20204;-68
2021/09/02 02:49:05;;;;;;;5.43;4.93;;;21.00;40.10;;;;;;4933830;29;20549;-68
2021/09/02 02:51:30;;;;;;;5.27;4.87;;;21.00;40.30;;;;;;4937203;29;20190;-68
2021/09/02 02:53:56;;;;;;;5.17;4.77;;;21.00;40.30;;;;;;4937425;29;20234;-68
2021/09/02 02:56:21;;;;;;;6.00;5.50;;;21.00;40.70;;;;;;4937113;29;20173;-68
2021/09/02 02:58:48;;;;;;;6.60;6.10;;;21.00;40.10;;;;;;4936983;29;20179;-68
2021/09/02 03:01:14;;;;;;;7.57;5.63;;;21.00;40.10;;;;;;4936953;29;20208;-68
2021/09/02 03:03:40;;;;;;;5.37;5.07;;;21.00;40.20;;;;;;4937145;29;20426;-68
2021/09/02 03:06:08;;;;;;;6.13;5.53;;;21.00;40.20;;;;;;4937042;29;20507;-68
2021/09/02 03:08:33;;;;;;;6.37;5.77;;;21.00;40.10;;;;;;4936981;29;20180;-68
2021/09/02 03:10:59;;;;;;;6.37;5.80;;;20.90;40.10;;;;;;4936864;29;20515;-68
2021/09/02 03:13:24;;;;;;;6.23;5.73;;;21.00;40.20;;;;;;4936887;29;20216;-68
2021/09/02 03:15:50;;;;;;;5.07;4.67;;;21.00;40.10;;;;;;4936916;29;20685;-68
2021/09/02 03:18:15;;;;;;;5.33;4.83;;;21.00;40.20;;;;;;4937097;29;20180;-68
2021/09/02 03:20:41;;;;;;;6.30;5.70;;;21.00;40.20;;;;;;4936727;29;20299;-68
2021/09/02 03:23:06;;;;;;;5.50;5.10;;;21.00;40.30;;;;;;4936857;29;20176;-68
2021/09/02 03:25:32;;;;;;;8.60;6.00;;;20.90;40.10;;;;;;4936918;29;20663;-68
2021/09/02 03:27:57;;;;;;;5.33;5.00;;;20.90;39.90;;;;;;4936582;29;20199;-68
2021/09/02 03:30:23;;;;;;;5.13;4.73;;;20.90;40.00;;;;;;4936416;29;20376;-66
2021/09/02 03:32:48;;;;;;;5.77;5.30;;;20.90;39.90;;;;;;4935060;29;20215;-70
2021/09/02 03:35:14;;;;;;;5.77;5.37;;;20.90;40.10;;;;;;4930079;29;20180;-70
2021/09/02 03:37:40;;;;;;;5.33;5.00;;;20.90;40.10;;;;;;4936460;29;20188;-67
2021/09/02 03:40:07;;;;;;;6.93;6.17;;;20.90;40.10;;;;;;4936292;29;20220;-68
2021/09/02 03:42:32;;;;;;;5.93;5.20;;;20.90;40.10;;;;;;4935756;29;20186;-68
2021/09/02 03:44:58;;;;;;;6.30;5.67;;;20.90;40.20;;;;;;4936287;29;20420;-69
2021/09/02 03:47:23;;;;;;;5.87;5.37;;;20.90;40.20;;;;;;4936110;29;20176;-67
2021/09/02 03:49:49;;;;;;;5.77;5.27;;;20.90;40.20;;;;;;4935717;29;20642;-67
2021/09/02 03:52:14;;;;;;;5.80;5.30;;;20.90;40.20;;;;;;4935991;29;20290;-72
2021/09/02 03:54:40;;;;;;;5.97;5.40;;;20.90;40.20;;;;;;4935905;29;20208;-68
2021/09/02 03:57:06;;;;;;;4.67;4.37;;;20.90;40.20;;;;;;4935670;29;20228;-70
2021/09/02 03:59:31;;;;;;;5.23;4.73;;;20.90;40.20;;;;;;4935733;29;20192;-68
2021/09/02 04:01:57;;;;;;;5.80;5.30;;;20.90;40.10;;;;;;4934968;29;20551;-69
2021/09/02 04:04:22;;;;;;;5.53;5.13;;;20.90;40.20;;;;;;4935669;29;20184;-68
2021/09/02 04:06:48;;;;;;;6.10;5.60;;;20.90;40.10;;;;;;4935990;29;20243;-68
2021/09/02 04:09:13;;;;;;;6.33;4.70;;;20.90;40.10;;;;;;4936005;29;20239;-69
2021/09/02 04:11:39;;;;;;;5.33;4.90;;;20.90;40.20;;;;;;4935388;29;20176;-70
2021/09/02 04:14:04;;;;;;;5.77;5.23;;;20.90;40.20;;;;;;4935936;29;20181;-67
2021/09/02 04:16:30;;;;;;;4.80;4.40;;;20.90;40.20;;;;;;4935737;29;20184;-68
2021/09/02 04:18:55;;;;;;;5.60;5.20;;;20.90;40.20;;;;;;4935283;29;20180;-67
2021/09/02 04:21:21;;;;;;;6.40;5.70;;;20.90;40.20;;;;;;4935479;29;20196;-67
2021/09/02 04:23:48;;;;;;;5.00;4.60;;;20.90;40.20;;;;;;4935546;29;20321;-68
2021/09/02 04:26:14;;;;;;;4.53;4.23;;;20.90;40.20;;;;;;4934951;29;20184;-68
2021/09/02 04:28:40;;;;;;;5.40;4.90;;;20.90;40.20;;;;;;4935361;29;20491;-69
2021/09/02 04:31:05;;;;;;;5.63;4.97;;;20.90;40.20;;;;;;4935314;29;20535;-67
2021/09/02 04:33:32;;;;;;;5.87;5.37;;;20.90;40.30;;;;;;4934703;29;20207;-69
2021/09/02 04:35:57;;;;;;;5.50;5.10;;;20.90;40.20;;;;;;4935371;29;20207;-69
2021/09/02 04:38:23;;;;;;;6.20;5.60;;;20.90;40.20;;;;;;4934960;29;20872;-69
2021/09/02 04:40:50;;;;;;;7.00;5.40;;;20.90;40.20;;;;;;4934801;29;20200;-68
2021/09/02 04:43:16;;;;;;;6.00;5.40;;;20.90;40.10;;;;;;4935141;29;20627;-67
2021/09/02 04:45:41;;;;;;;5.00;4.60;;;20.90;40.10;;;;;;4935037;29;20427;-68
2021/09/02 04:48:21;;;;;;;6.10;5.50;;;20.90;40.20;;;;;;4935063;29;20464;-68
2021/09/02 04:50:49;;;;;;;5.03;4.60;;;20.90;40.10;;;;;;4935110;29;20919;-68
2021/09/02 04:53:15;;;;;;;5.00;4.50;;;20.80;40.00;;;;;;4934697;29;20455;-67
2021/09/02 04:55:41;;;;;;;4.90;4.60;;;20.90;40.00;;;;;;4934932;29;20424;-68
2021/09/02 04:58:09;;;;;;;5.77;5.27;;;20.90;40.10;;;;;;4934764;29;20412;-68
2021/09/02 05:00:37;;;;;;;4.83;4.43;;;20.90;40.10;;;;;;4934514;29;20203;-68
2021/09/02 05:03:04;;;;;;;5.57;5.07;;;20.90;40.10;;;;;;4934691;29;20415;-68
2021/09/02 05:05:30;;;;;;;4.90;4.50;;;20.90;40.10;;;;;;4934743;29;20503;-68
2021/09/02 05:07:56;;;;;;;5.57;5.03;;;20.90;40.10;;;;;;4934590;29;20431;-68
2021/09/02 05:10:22;;;;;;;5.33;4.93;;;20.90;40.20;;;;;;4934225;29;20456;-68
2021/09/02 05:12:48;;;;;;;5.37;4.97;;;20.90;40.20;;;;;;4934392;29;20471;-68
2021/09/02 05:15:14;;;;;;;4.50;4.10;;;20.90;40.20;;;;;;4934630;29;20430;-69
2021/09/02 05:17:39;;;;;;;5.00;4.60;;;20.80;40.10;;;;;;4934632;29;20902;-69
2021/09/02 05:20:06;;;;;;;4.93;4.53;;;20.80;40.10;;;;;;4933916;29;20659;-69
2021/09/02 05:22:31;;;;;;;5.53;5.03;;;20.90;40.20;;;;;;4934274;29;20180;-69
2021/09/02 05:24:57;;;;;;;4.73;4.40;;;20.90;40.00;;;;;;4934422;29;20479;-70
2021/09/02 05:27:23;;;;;;;4.70;4.40;;;20.90;39.80;;;;;;4933119;29;20208;-69
2021/09/02 05:29:48;;;;;;;5.77;5.30;;;20.80;39.50;;;;;;4934278;29;20199;-68
2021/09/02 05:32:14;;;;;;;4.73;4.37;;;20.90;39.60;;;;;;4934126;29;20243;-68
2021/09/02 05:34:39;;;;;;;5.83;4.50;;;20.80;39.40;;;;;;4934230;29;20176;-69
2021/09/02 05:37:05;;;;;;;4.90;4.30;;;20.80;39.30;;;;;;4934057;29;20639;-67
2021/09/02 05:39:30;;;;;;;5.17;4.77;;;20.90;39.30;;;;;;4934301;29;20219;-69
2021/09/02 05:41:56;;;;;;;5.40;5.00;;;20.80;39.10;;;;;;4933740;29;20187;-69
2021/09/02 05:44:22;;;;;;;5.67;4.90;;;20.80;39.10;;;;;;4934365;29;20176;-69
2021/09/02 05:46:47;;;;;;;5.60;5.20;;;20.80;39.00;;;;;;4934443;29;20439;-69
2021/09/02 05:49:13;;;;;;;5.80;5.37;;;20.80;38.90;;;;;;4933834;29;20192;-67
2021/09/02 05:51:39;;;;;;;6.40;4.93;;;20.80;38.90;;;;;;4934118;29;20187;-67
2021/09/02 05:54:05;;;;;;;5.63;5.13;;;20.80;38.80;;;;;;4934474;29;20200;-68
2021/09/02 05:56:30;;;;;;;5.60;5.20;;;20.80;38.80;;;;;;4934236;29;20747;-70
2021/09/02 05:58:56;;;;;;;5.83;5.23;;;20.80;38.60;;;;;;4934120;29;20207;-70
2021/09/02 06:01:22;;;;;;;5.83;4.90;;;20.80;38.60;;;;;;4934156;29;20302;-69
2021/09/02 06:03:48;;;;;;;5.10;4.70;;;20.80;38.80;;;;;;4933912;29;20183;-68
2021/09/02 06:06:13;;;;;;;6.10;5.60;;;20.80;38.60;;;;;;4934276;29;20416;-68
2021/09/02 06:08:39;;;;;;;5.57;5.00;;;20.80;38.40;;;;;;4933847;29;20188;-68
2021/09/02 06:11:05;;;;;;;6.27;5.80;;;20.80;38.40;;;;;;4934142;29;20294;-69
2021/09/02 06:13:31;;;;;;;6.07;5.50;;;20.80;38.30;;;;;;4934298;29;20671;-67
2021/09/02 06:15:57;;;;;;;5.83;5.33;;;20.80;38.30;;;;;;4934143;29;20207;-69
2021/09/02 06:18:23;;;;;;;5.77;5.27;;;20.80;38.30;;;;;;4933681;29;20447;-67
2021/09/02 06:20:48;;;;;;;5.50;5.10;;;20.80;38.30;;;;;;4933883;29;20472;-67
2021/09/02 06:23:14;;;;;;;5.60;5.10;;;20.80;38.20;;;;;;4934404;29;20799;-68
2021/09/02 06:25:39;;;;;;;5.43;5.03;;;20.80;38.20;;;;;;4936031;29;20281;-66
2021/09/02 06:28:05;;;;;;;6.43;5.73;;;20.80;38.10;;;;;;4938030;29;20215;-69
2021/09/02 06:30:31;;;;;;;5.13;4.73;;;20.80;38.20;;;;;;4937526;29;20235;-68
2021/09/02 06:32:57;;;;;;;6.00;5.37;;;20.80;39.10;;;;;;4937370;29;20495;-72
2021/09/02 06:35:23;;;;;;;6.90;5.80;;;20.80;38.40;;;;;;4937791;29;20832;-69
2021/09/02 06:37:48;;;;;;;6.40;5.80;;;20.80;38.50;;;;;;4937592;29;20531;-70
2021/09/02 06:40:14;;;;;;;6.40;5.90;;;20.80;38.40;;;;;;4937032;29;20239;-71
2021/09/02 06:42:40;;;;;;;6.27;5.67;;;20.80;38.50;;;;;;4937143;29;20188;-69
2021/09/02 06:45:06;;;;;;;6.60;6.00;;;20.80;38.20;;;;;;4936043;29;20242;-69
2021/09/02 06:47:32;;;;;;;6.07;5.47;;;20.80;38.20;;;;;;4936719;29;20176;-68
2021/09/02 06:49:57;;;;;;;5.77;5.27;;;20.80;38.30;;;;;;4936840;29;20524;-71
2021/09/02 06:52:23;;;;;;;7.13;6.50;;;20.80;38.20;;;;;;4937206;29;20212;-71
2021/09/02 06:54:48;;;;;;;6.67;5.97;;;20.80;38.00;;;;;;4937176;29;20180;-71
2021/09/02 06:57:14;;;;;;;6.20;5.60;;;20.80;37.90;;;;;;4937250;29;20643;-69
2021/09/02 06:59:40;;;;;;;7.10;6.10;;;20.80;38.00;;;;;;4937020;29;20271;-72
2021/09/02 07:02:05;;;;;;;7.10;6.37;;;20.80;37.80;;;;;;4936874;29;20188;-67
2021/09/02 07:04:31;;;;;;;7.17;6.57;;;20.80;37.80;;;;;;4936911;29;20204;-69
2021/09/02 07:06:57;;;;;;;7.37;6.80;;;20.80;37.90;;;;;;4937231;29;20451;-68
2021/09/02 07:09:22;;;;;;;6.37;5.77;;;20.80;37.70;;;;;;4936354;29;20255;-68
2021/09/02 07:11:48;;;;;;;7.13;6.40;;;20.80;37.70;;;;;;4936937;29;20231;-68
2021/09/02 07:14:13;;;;;;;6.93;6.40;;;20.80;37.70;;;;;;4936635;29;20180;-68
2021/09/02 07:16:39;;;;;;;6.70;6.10;;;20.80;37.50;;;;;;4936672;29;20176;-69
2021/09/02 07:19:04;;;;;;;6.70;6.10;;;20.80;37.40;;;;;;4936383;29;20184;-69
2021/09/02 07:21:30;;;;;;;6.03;5.43;;;20.80;37.40;;;;;;4936851;29;20176;-68
2021/09/02 07:23:55;;;;;;;7.30;6.53;;;20.80;38.10;;;;;;4936666;29;20187;-68
2021/09/02 07:26:22;;;;;;;7.50;6.83;;;20.80;37.40;;;;;;4936734;29;20176;-69
2021/09/02 07:28:48;;;;;;;7.67;6.87;;;20.80;37.40;;;;;;4936678;29;20216;-69
2021/09/02 07:31:13;;;;;;;7.07;6.50;;;20.80;37.40;;;;;;4936313;29;20935;-69
2021/09/02 07:33:39;;;;;;;8.63;7.03;;;20.80;37.10;;;;;;4936180;29;20200;-68
2021/09/02 07:36:04;;;;;;;7.43;6.33;;;20.80;37.10;;;;;;4935822;29;20284;-71
2021/09/02 07:38:30;;;;;;;7.50;6.80;;;20.80;37.30;;;;;;4936080;29;20535;-67
2021/09/02 07:40:56;;;;;;;10.60;8.20;;;20.80;37.30;;;;;;4935155;29;20200;-69
2021/09/02 07:43:21;;;;;;;8.33;7.53;;;20.70;37.20;;;;;;4936424;29;20180;-69
2021/09/02 07:45:47;;;;;;;9.20;7.93;;;20.80;37.30;;;;;;4936379;29;20192;-71
2021/09/02 07:48:12;;;;;;;8.03;7.33;;;20.80;37.20;;;;;;4935874;29;20180;-68
2021/09/02 07:50:38;;;;;;;9.60;8.47;;;20.80;37.20;;;;;;4935909;29;20662;-69
2021/09/02 07:53:03;;;;;;;8.80;8.03;;;20.80;37.20;;;;;;4935678;29;20257;-69
2021/09/02 07:55:29;;;;;;;9.33;7.83;;;20.80;37.20;;;;;;4935844;29;20192;-69
2021/09/02 07:57:54;;;;;;;8.33;7.63;;;20.80;37.30;;;;;;4936027;29;20716;-69
2021/09/02 08:00:20;;;;;;;9.13;7.70;;;20.80;37.40;;;;;;4935835;29;20191;-69
2021/09/02 08:02:46;;;;;;;9.97;8.10;;;20.80;37.40;;;;;;4935692;29;20216;-67
2021/09/02 08:05:12;;;;;;;7.97;7.20;;;20.80;37.40;;;;;;4934929;29;20186;-67
2021/09/02 08:07:49;;;;;;;8.30;7.30;;;20.70;37.30;;;;;;4935972;29;20420;-68
2021/09/02 08:10:16;;;;;;;11.07;6.60;;;20.80;37.60;;;;;;4935404;29;20439;-67
2021/09/02 08:12:42;;;;;;;7.80;7.00;;;20.80;37.70;;;;;;4947783;29;20969;-68
2021/09/02 08:15:09;;;;;;;9.53;8.60;;;20.80;37.60;;;;;;4954698;28;20415;-68
2021/09/02 08:17:35;;;;;;;8.40;7.57;;;20.70;37.40;;;;;;4954752;28;20179;-67
2021/09/02 08:20:00;;;;;;;8.13;7.43;;;20.80;37.30;;;;;;4954506;28;20845;-69
2021/09/02 08:22:26;;;;;;;12.20;8.60;;;20.80;37.30;;;;;;4954951;29;20180;-69
2021/09/02 08:24:51;;;;;;;8.00;7.30;;;20.70;37.30;;;;;;4954546;28;20190;-66
2021/09/02 08:27:18;;;;;;;8.70;7.77;;;20.80;37.40;;;;;;4954509;29;20180;-68
2021/09/02 08:29:45;;;;;;;9.93;8.20;;;20.80;37.30;;;;;;4954189;28;20203;-68
2021/09/02 08:32:12;;;;;;;8.10;7.40;;;20.80;38.00;;;;;;4954138;28;20454;-69
2021/09/02 08:34:37;;;;;;;8.67;7.97;;;20.80;37.40;;;;;;4937314;28;20423;-68
2021/09/02 08:37:03;;;;;;;8.70;7.90;;;20.80;37.40;;;;;;4935456;29;20416;-68
2021/09/02 08:39:28;;;;;;;11.17;8.03;;;20.90;38.40;;;;;;4934970;29;20715;-68
2021/09/02 08:41:54;;;;;;;10.23;8.53;;;20.90;37.80;;;;;;4934766;29;20666;-68
2021/09/02 08:44:19;;;;;;;10.60;8.77;;;20.90;37.90;;;;;;4935385;29;20207;-68
2021/09/02 08:46:45;;;;;;;8.20;7.50;;;20.90;37.80;;;;;;4934747;29;20184;-67
2021/09/02 08:49:14;;;;;;;8.17;7.37;;;20.90;37.70;;;;;;4934680;29;20184;-70
2021/09/02 08:51:40;;;;;;;9.63;7.60;;;21.00;37.60;;;;;;4934888;29;20187;-70
2021/09/02 08:54:06;;;;;;;10.80;9.67;;;21.00;37.50;;;;;;4935181;29;20408;-71
2021/09/02 08:56:31;;;;;;;8.70;7.77;;;21.10;37.40;;;;;;4935169;29;20938;-70
2021/09/02 08:58:57;;;;;;;9.70;8.00;;;21.10;37.20;;;;;;4934729;29;20202;-68
2021/09/02 09:01:22;;;;;;;8.43;7.63;;;21.20;37.30;;;;;;4934474;29;20227;-70
2021/09/02 09:03:49;;;;;;;11.73;8.87;;;21.20;37.20;;;;;;4934874;29;20196;-69
2021/09/02 09:06:23;;;;;;;9.43;8.53;;;21.30;37.20;;;;;;4934942;29;20683;-69
2021/09/02 09:08:48;;;;;;;8.07;7.07;;;21.30;37.10;;;;;;4934251;29;20420;-69
2021/09/02 09:11:24;;;;;;;11.50;9.37;;;21.30;37.00;;;;;;4934655;29;20439;-69
2021/09/02 09:14:07;;;;;;;9.17;8.27;;;21.40;37.10;;;;;;4934607;29;20226;-69
2021/09/02 09:16:42;;;;;;;9.63;8.70;;;21.40;37.00;;;;;;4934625;29;20411;-69
2021/09/02 09:19:08;;;;;;;11.30;8.27;;;21.40;37.00;;;;;;4934429;29;20478;-68
2021/09/02 09:21:33;;;;;;;9.50;8.07;;;21.40;36.90;;;;;;4934540;29;20902;-69
2021/09/02 09:24:06;;;;;;;9.63;8.00;;;21.50;36.90;;;;;;4934104;29;20266;-69
2021/09/02 09:26:33;;;;;;;8.47;7.57;;;21.50;36.80;;;;;;4934973;29;20207;-67
2021/09/02 09:29:02;;;;;;;8.40;7.50;;;21.50;36.80;;;;;;4934552;29;20440;-67
2021/09/02 09:31:36;;;;;;;8.50;7.80;;;21.60;36.80;;;;;;4934668;29;20433;-67
2021/09/02 09:34:04;;;;;;;10.20;8.40;;;21.60;36.80;;;;;;4934608;29;20866;-67
2021/09/02 09:36:32;;;;;;;8.17;7.53;;;21.60;36.70;;;;;;4934123;29;20941;-67
2021/09/02 09:38:59;;;;;;;10.53;8.20;;;21.60;36.70;;;;;;4934034;29;20820;-66
2021/09/02 09:41:39;;;;;;;9.00;7.33;;;21.70;36.80;;;;;;4934207;29;20446;-69
2021/09/02 09:44:30;;;;;;;8.67;7.93;;;21.70;36.80;;;;;;4934071;29;20749;-68
2021/09/02 09:47:02;;;;;;;8.47;7.77;;;21.70;36.70;;;;;;4934064;29;20424;-69
2021/09/02 09:49:52;;;;;;;7.97;7.27;;;21.80;36.80;;;;;;4933636;29;20926;-69
2021/09/02 09:52:27;;;;;;;7.57;6.87;;;21.80;36.80;;;;;;4933694;29;20459;-70
2021/09/02 09:55:12;;;;;;;8.50;7.70;;;21.80;36.70;;;;;;4934277;29;20969;-68
2021/09/02 09:57:42;;;;;;;8.20;7.50;;;21.80;36.70;;;;;;4933273;29;20523;-68
2021/09/02 10:00:11;;;;;;;8.10;7.00;;;21.80;36.70;;;;;;4935220;29;20435;-68
2021/09/02 10:02:41;;;;;;;8.27;7.47;;;21.80;36.70;;;;;;4937868;29;20427;-71
2021/09/02 10:05:10;;;;;;;8.10;7.40;;;21.80;36.70;;;;;;4938024;29;20442;-70
2021/09/02 10:07:36;;;;;;;7.70;7.00;;;21.80;36.70;;;;;;4937493;29;20420;-70
2021/09/02 10:10:05;;;;;;;8.03;7.33;;;21.90;36.80;;;;;;4937471;29;20522;-67
2021/09/02 10:12:36;;;;;;;8.40;7.63;;;21.90;36.80;;;;;;4938007;29;20890;-70
2021/09/02 10:15:07;;;;;;;7.10;6.60;;;21.90;36.60;;;;;;4937868;29;20523;-69
2021/09/02 10:17:34;;;;;;;8.20;7.40;;;21.90;36.50;;;;;;4937739;29;20502;-67
2021/09/02 10:20:17;;;;;;;8.10;7.40;;;21.90;36.50;;;;;;4937396;29;20439;-68
2021/09/02 10:22:45;;;;;;;7.87;7.20;;;22.00;36.60;;;;;;4937467;29;20416;-67
2021/09/02 10:28:00;;;;;;;7.67;6.97;;;21.90;36.40;;;;;;4937485;29;20511;-66
2021/09/02 10:30:26;;;;;;;7.87;7.27;;;22.00;36.50;;;;;;4936990;29;20533;-68
2021/09/02 10:32:53;;;;;;;8.17;7.57;;;22.00;36.40;;;;;;4936942;29;20463;-66
2021/09/02 10:35:18;;;;;;;7.30;6.70;;;22.00;36.50;;;;;;4937536;29;20479;-68
2021/09/02 10:37:44;;;;;;;7.30;6.70;;;22.00;36.50;;;;;;4937164;29;20786;-68
2021/09/02 10:40:15;;;;;;;9.03;8.23;;;22.00;36.40;;;;;;4937046;29;20192;-67
2021/09/02 10:42:44;;;;;;;7.67;7.07;;;22.00;36.40;;;;;;4937751;29;20184;-67
2021/09/02 10:45:25;;;;;;;7.30;6.70;;;22.00;36.30;;;;;;4936952;29;20419;-66
2021/09/02 10:47:52;;;;;;;7.37;6.87;;;22.00;36.20;;;;;;4937430;29;20506;-68
2021/09/02 10:50:22;;;;;;;7.20;6.60;;;22.00;36.20;;;;;;4933649;29;20518;-68
2021/09/02 10:52:48;;;;;;;7.33;6.73;;;22.10;36.20;;;;;;4936735;29;20460;-68
2021/09/02 10:55:36;;;;;;;6.67;6.17;;;22.10;36.20;;;;;;4936991;29;20415;-68
2021/09/02 10:58:05;;;;;;;8.17;7.37;;;22.10;36.30;;;;;;4937193;29;20641;-68
2021/09/02 11:00:37;;;;;;;7.80;7.20;;;22.10;36.30;;;;;;4936348;29;20439;-68
2021/09/02 11:03:14;;;;;;;7.47;6.87;;;22.10;36.30;;;;;;4936869;29;20918;-67
2021/09/02 11:05:42;;;;;;;7.73;7.10;;;22.10;36.30;;;;;;4936703;29;20419;-68
2021/09/02 11:08:09;;;;;;;6.90;6.30;;;22.10;36.30;;;;;;4936959;29;20956;-67
2021/09/02 11:10:35;;;;;;;6.37;5.83;;;22.10;36.20;;;;;;4936121;29;20428;-67
2021/09/02 11:13:08;;;;;;;7.20;6.63;;;22.10;36.20;;;;;;4936672;29;20470;-71
2021/09/02 11:15:35;;;;;;;6.83;6.23;;;22.20;36.30;;;;;;4936914;29;20649;-68
2021/09/02 11:18:05;;;;;;;6.90;6.40;;;22.20;36.20;;;;;;4936697;29;20812;-67
2021/09/02 11:20:35;;;;;;;6.77;6.27;;;22.20;36.20;;;;;;4936144;29;20431;-69
2021/09/02 11:23:13;;;;;;;7.43;6.87;;;22.20;36.10;;;;;;4935131;29;20424;-68
2021/09/02 11:25:50;;;;;;;7.53;6.83;;;22.20;36.10;;;;;;4935766;29;20440;-68
2021/09/02 11:28:21;;;;;;;7.70;7.00;;;22.20;36.30;;;;;;4930138;29;20435;-67
2021/09/02 11:30:47;;;;;;;7.40;6.90;;;22.20;36.20;;;;;;4935434;29;20451;-68
2021/09/02 11:33:15;;;;;;;7.40;6.73;;;22.20;36.30;;;;;;4935544;29;20451;-68
2021/09/02 11:35:41;;;;;;;8.00;7.40;;;22.20;36.10;;;;;;4935618;29;20499;-69
2021/09/02 11:38:06;;;;;;;7.57;6.97;;;22.20;36.10;;;;;;4935449;29;20494;-68
2021/09/02 11:40:37;;;;;;;8.20;7.40;;;22.20;36.10;;;;;;4934970;29;20196;-68
2021/09/02 11:43:03;;;;;;;7.33;6.70;;;22.20;35.80;;;;;;4935763;29;20604;-67
2021/09/02 11:45:31;;;;;;;7.37;6.77;;;22.20;35.80;;;;;;4936414;29;20511;-68
2021/09/02 11:48:05;;;;;;;6.67;6.07;;;22.20;35.50;;;;;;4933403;29;20428;-67
2021/09/02 11:50:32;;;;;;;7.60;7.00;;;22.10;35.40;;;;;;4933743;29;20444;-67
2021/09/02 11:52:57;;;;;;;6.43;5.93;;;22.10;35.50;;;;;;4932538;29;20472;-67
2021/09/02 11:55:27;;;;;;;6.70;6.10;;;22.10;35.30;;;;;;4926744;29;20420;-68
2021/09/02 11:57:57;;;;;;;7.80;7.20;;;22.10;35.20;;;;;;4929845;29;20247;-68
2021/09/02 12:00:23;;;;;;;7.83;6.50;;;22.10;35.30;;;;;;4918783;29;21044;-66
2021/09/02 12:02:57;;;;;;;6.67;6.07;;;22.10;35.20;;;;;;4928758;29;20424;-68
2021/09/02 12:05:39;;;;;;;7.20;6.50;;;22.10;35.10;;;;;;4935461;29;20180;-67
2021/09/02 12:08:09;;;;;;;7.07;6.37;;;22.10;35.10;;;;;;4934088;29;20462;-66
2021/09/02 12:10:36;;;;;;;6.47;5.97;;;22.00;35.00;;;;;;4931096;29;20444;-67
2021/09/02 12:13:22;;;;;;;6.50;6.00;;;22.10;35.20;;;;;;4935060;29;20467;-68
2021/09/02 12:16:08;;;;;;;6.43;5.97;;;22.00;35.00;;;;;;4935619;29;20454;-67
2021/09/02 12:18:35;;;;;;;6.57;6.07;;;22.00;34.90;;;;;;4935439;29;20827;-68
2021/09/02 12:21:10;;;;;;;6.03;5.53;;;22.00;35.00;;;;;;4935012;29;20981;-68
2021/09/02 12:23:44;;;;;;;7.17;6.47;;;22.00;35.00;;;;;;4935065;29;20424;-68
2021/09/02 12:26:10;;;;;;;5.70;5.30;;;22.00;34.80;;;;;;4933835;29;20798;-69
2021/09/02 12:28:39;;;;;;;6.20;5.20;;;22.00;34.70;;;;;;4934934;29;20420;-68
2021/09/02 12:31:19;;;;;;;6.50;6.00;;;22.00;34.60;;;;;;4935547;29;20490;-68
2021/09/02 12:34:11;;;;;;;6.70;6.13;;;22.00;34.50;;;;;;4935112;29;20542;-68
2021/09/02 12:36:39;;;;;;;7.27;6.77;;;22.00;34.40;;;;;;4933869;29;20532;-68
2021/09/02 12:39:12;;;;;;;6.37;5.97;;;21.90;34.40;;;;;;4934583;29;20427;-68
2021/09/02 12:41:43;;;;;;;9.70;6.27;;;22.00;34.40;;;;;;4935328;29;20420;-68
2021/09/02 12:44:20;;;;;;;6.90;6.30;;;22.00;34.50;;;;;;4934659;29;20511;-70
2021/09/02 12:46:46;;;;;;;6.30;5.70;;;21.90;34.40;;;;;;4929956;29;20420;-69
2021/09/02 12:49:11;;;;;;;6.80;6.20;;;22.00;34.70;;;;;;4934574;29;20415;-68